Time;durP1;ratioP1;P1;durP2;ratioP2;P2;SDS_P1;SDS_P2;PMS_P1;PMS_P2;Temp;Humidity;BMP_temperature;BMP_pressure;BME280_temperature;BME280_humidity;BME280_pressure;Samples;Min_cycle;Max_cycle;Signal;HPM_P1;HPM_P2
2022/04/20 00:00:22;;;;;;;4.30;2.40;;;18.80;73.60;;;;;;5072639;28;20048;-65
2022/04/20 00:33:10;;;;;;;3.58;2.08;;;18.50;73.30;;;;;;5181985;27;160036;-67
2022/04/20 00:35:35;;;;;;;4.38;2.35;;;18.40;70.60;;;;;;5186776;27;20041;-67
2022/04/20 00:38:42;;;;;;;7.20;2.70;;;18.40;73.50;;;;;;5194170;27;20042;-67
2022/04/20 00:41:09;;;;;;;5.55;2.03;;;18.30;73.30;;;;;;5175218;27;20037;-68
2022/04/20 00:43:34;;;;;;;4.32;2.25;;;18.50;73.30;;;;;;5173914;27;20244;-67
2022/04/20 00:46:00;;;;;;;5.28;2.55;;;18.30;73.30;;;;;;5175011;27;20128;-67
2022/04/20 00:48:26;;;;;;;7.40;2.80;;;18.50;70.50;;;;;;5193795;27;20053;-67
2022/04/20 00:50:52;;;;;;;4.95;2.45;;;18.40;70.40;;;;;;5193322;27;20467;-67
2022/04/20 00:53:17;;;;;;;6.30;3.10;;;18.50;73.60;;;;;;5194365;27;20038;-67
2022/04/20 00:55:43;;;;;;;4.30;2.22;;;18.40;73.20;;;;;;5192042;27;20042;-63
2022/04/20 00:58:09;;;;;;;4.57;2.40;;;18.30;73.40;;;;;;5194125;27;20078;-67
2022/04/20 01:00:35;;;;;;;4.60;2.53;;;;;;;;;;5174588;27;20402;-67
2022/04/20 01:03:01;;;;;;;5.75;2.50;;;18.30;68.60;;;;;;5174921;27;20046;-67
2022/04/20 01:05:27;;;;;;;5.13;2.72;;;18.50;73.50;;;;;;5193010;27;20049;-67
2022/04/20 01:07:54;;;;;;;5.65;2.60;;;18.40;73.30;;;;;;5183433;27;20069;-67
2022/04/20 01:10:20;;;;;;;5.40;2.55;;;18.70;73.30;;;;;;5173768;27;20049;-63
2022/04/20 01:12:46;;;;;;;5.22;2.60;;;18.40;73.00;;;;;;5190682;27;20038;-67
2022/04/20 01:15:12;;;;;;;4.88;2.47;;;;;;;;;;5157000;27;20069;-67
2022/04/20 01:17:38;;;;;;;4.95;2.72;;;18.50;73.30;;;;;;5171805;27;20041;-63
2022/04/20 01:20:17;;;;;;;5.05;2.60;;;18.60;73.10;;;;;;5174542;27;20046;-63
2022/04/20 01:22:43;;;;;;;5.93;2.55;;;18.70;73.30;;;;;;5192918;27;20050;-63
2022/04/20 01:25:09;;;;;;;4.57;2.25;;;18.40;73.10;;;;;;5193204;27;20038;-63
2022/04/20 01:27:35;;;;;;;5.00;2.47;;;18.30;72.90;;;;;;5156184;27;20113;-62
2022/04/20 01:30:01;;;;;;;5.10;2.63;;;18.40;72.80;;;;;;5191266;27;20057;-62
2022/04/20 01:32:27;;;;;;;4.65;2.28;;;18.40;70.00;;;;;;5152092;27;20076;-62
2022/04/20 01:34:52;;;;;;;4.93;2.60;;;18.30;73.00;;;;;;5172115;27;20168;-62
2022/04/20 01:37:18;;;;;;;4.40;2.40;;;18.20;72.90;;;;;;5169841;27;20403;-62
2022/04/20 01:39:44;;;;;;;6.65;2.63;;;18.30;70.00;;;;;;5168770;27;20056;-65
2022/04/20 01:42:10;;;;;;;4.95;2.20;;;18.30;72.80;;;;;;5171574;27;20042;-61
2022/04/20 01:44:37;;;;;;;4.85;2.67;;;18.10;69.90;;;;;;5149172;27;20372;-62
2022/04/20 01:47:02;;;;;;;4.20;2.38;;;18.30;72.80;;;;;;5155587;27;20498;-62
2022/04/20 01:49:28;;;;;;;5.15;2.63;;;18.30;72.80;;;;;;5155818;27;20058;-62
2022/04/20 01:51:54;;;;;;;5.22;2.47;;;18.50;70.10;;;;;;5155859;27;20483;-62
2022/04/20 01:54:20;;;;;;;4.07;2.20;;;18.30;71.90;;;;;;5158206;27;20486;-63
2022/04/20 01:56:47;;;;;;;4.15;2.40;;;18.40;70.00;;;;;;5155735;27;20039;-62
2022/04/20 01:59:13;;;;;;;5.00;2.50;;;18.20;72.80;;;;;;5157006;27;20429;-62
2022/04/20 02:04:23;;;;;;;5.47;2.58;;;;;;;;;;5137158;27;20040;-68
2022/04/20 02:06:50;;;;;;;5.63;2.67;;;;;;;;;;5156693;27;20047;-63
2022/04/20 02:09:15;;;;;;;4.75;2.40;;;18.20;72.80;;;;;;5152814;27;20098;-66
2022/04/20 02:11:41;;;;;;;4.10;2.30;;;18.40;72.90;;;;;;5156231;27;20047;-68
2022/04/20 02:14:06;;;;;;;6.00;2.20;;;18.10;72.80;;;;;;5155086;27;20037;-67
2022/04/20 02:16:32;;;;;;;5.78;2.55;;;18.10;72.90;;;;;;5149871;27;20091;-68
2022/04/20 02:18:58;;;;;;;4.40;2.33;;;18.40;72.90;;;;;;5156362;27;20429;-66
2022/04/20 02:21:23;;;;;;;5.60;2.60;;;18.50;73.10;;;;;;5156503;27;20130;-67
2022/04/20 02:23:49;;;;;;;4.75;2.65;;;18.20;72.80;;;;;;5138320;27;20190;-67
2022/04/20 02:26:15;;;;;;;3.95;2.05;;;18.30;73.20;;;;;;5156969;27;20043;-66
2022/04/20 02:28:41;;;;;;;5.47;2.63;;;18.30;73.00;;;;;;5156828;27;20087;-66
2022/04/20 02:31:06;;;;;;;4.72;2.50;;;18.20;73.00;;;;;;5154751;27;20050;-62
2022/04/20 02:33:32;;;;;;;5.53;2.35;;;18.10;72.80;;;;;;5169446;27;20486;-66
2022/04/20 02:35:58;;;;;;;3.75;2.25;;;;;;;;;;5159184;27;20058;-66
2022/04/20 02:38:24;;;;;;;5.45;2.50;;;18.00;69.90;;;;;;5176907;27;20070;-66
2022/04/20 02:40:51;;;;;;;4.93;2.40;;;18.10;72.80;;;;;;5177093;27;20069;-67
2022/04/20 02:43:16;;;;;;;4.60;2.58;;;18.10;72.90;;;;;;5158583;27;20057;-67
2022/04/20 02:45:42;;;;;;;4.68;2.35;;;18.00;69.70;;;;;;5177294;27;20390;-67
2022/04/20 02:48:08;;;;;;;5.45;2.60;;;18.20;72.90;;;;;;5158178;27;20039;-66
2022/04/20 02:50:34;;;;;;;4.68;2.40;;;18.20;72.90;;;;;;5157049;27;20042;-65
2022/04/20 02:53:00;;;;;;;4.90;2.28;;;18.00;72.80;;;;;;5158143;27;20050;-67
2022/04/20 02:55:25;;;;;;;4.43;2.47;;;18.00;72.90;;;;;;5158141;27;20070;-66
2022/04/20 02:57:51;;;;;;;4.63;2.58;;;17.90;72.90;;;;;;5176857;27;20529;-67
2022/04/20 03:00:17;;;;;;;7.88;2.58;;;18.00;73.10;;;;;;5157521;27;20038;-66
2022/04/20 03:02:43;;;;;;;10.80;3.10;;;17.90;73.60;;;;;;5157842;27;20127;-66
2022/04/20 03:05:09;;;;;;;5.85;2.40;;;17.80;73.10;;;;;;5157546;27;20121;-66
2022/04/20 03:07:35;;;;;;;4.65;2.25;;;17.70;72.90;;;;;;5139482;27;20050;-66
2022/04/20 03:10:00;;;;;;;4.10;2.42;;;17.70;73.10;;;;;;5175223;27;20430;-65
2022/04/20 03:12:26;;;;;;;4.05;2.17;;;17.70;73.30;;;;;;5157259;27;20045;-66
2022/04/20 03:14:54;;;;;;;4.47;2.50;;;;;;;;;;5158792;27;20046;-65
2022/04/20 03:17:23;;;;;;;5.50;2.40;;;18.10;73.40;;;;;;5158540;27;20046;-66
2022/04/20 03:19:49;;;;;;;5.15;2.40;;;18.00;73.50;;;;;;5140950;27;20130;-62
2022/04/20 03:22:15;;;;;;;4.30;2.42;;;;;;;;;;5139333;27;20557;-67
2022/04/20 03:24:41;;;;;;;4.70;2.30;;;17.90;73.60;;;;;;5157746;27;20038;-65
2022/04/20 03:27:07;;;;;;;4.45;2.60;;;18.00;73.40;;;;;;5140981;27;20053;-67
2022/04/20 03:29:33;;;;;;;6.40;2.63;;;;;;;;;;5158187;27;20038;-66
2022/04/20 03:32:09;;;;;;;6.72;2.60;;;18.10;73.30;;;;;;5156692;27;20046;-68
2022/04/20 03:34:36;;;;;;;5.75;2.72;;;17.80;73.20;;;;;;5123483;27;20038;-67
2022/04/20 03:37:01;;;;;;;6.22;2.85;;;17.80;73.30;;;;;;5175042;27;20046;-67
2022/04/20 03:39:27;;;;;;;5.30;2.63;;;17.80;70.40;;;;;;5177030;27;20034;-67
2022/04/20 03:41:53;;;;;;;7.38;2.67;;;18.00;73.60;;;;;;5157592;27;20129;-68
2022/04/20 03:44:18;;;;;;;4.72;2.38;;;17.80;73.40;;;;;;5175337;27;20379;-67
2022/04/20 03:46:44;;;;;;;4.78;2.78;;;17.90;70.80;;;;;;5176657;27;20042;-67
2022/04/20 03:49:10;;;;;;;4.38;2.20;;;17.80;73.40;;;;;;5157893;27;20061;-67
2022/04/20 03:51:37;;;;;;;4.38;2.20;;;18.00;70.90;;;;;;5156838;27;20053;-61
2022/04/20 03:54:02;;;;;;;5.60;2.72;;;17.60;73.40;;;;;;5175780;27;20050;-62
2022/04/20 03:57:03;;;;;;;4.95;2.63;;;17.60;70.40;;;;;;5176513;27;20068;-63
2022/04/20 03:59:13;;;;;;;5.35;2.50;;;17.80;74.00;;;;;;5157600;27;20053;-61
2022/04/20 04:01:39;;;;;;;4.97;2.60;;;17.80;73.60;;;;;;5157144;27;20403;-67
2022/04/20 04:04:05;;;;;;;6.32;2.90;;;17.80;73.60;;;;;;5176144;27;20042;-67
2022/04/20 04:06:31;;;;;;;5.57;2.55;;;;;;;;;;5175404;27;20504;-67
2022/04/20 04:08:57;;;;;;;4.53;2.25;;;17.70;73.60;;;;;;5165754;27;20392;-66
2022/04/20 04:11:22;;;;;;;4.63;2.65;;;17.40;73.50;;;;;;5153912;27;20043;-66
2022/04/20 04:13:48;;;;;;;5.22;2.63;;;17.70;73.60;;;;;;5155626;27;20145;-63
2022/04/20 04:16:14;;;;;;;4.03;2.30;;;17.70;73.60;;;;;;5169999;27;20032;-67
2022/04/20 04:18:39;;;;;;;4.80;2.50;;;17.60;73.70;;;;;;5175910;27;20057;-66
2022/04/20 04:21:05;;;;;;;4.32;2.38;;;17.50;73.90;;;;;;5176379;27;20090;-67
2022/04/20 04:23:31;;;;;;;5.32;2.53;;;17.70;74.00;;;;;;5156572;27;20050;-63
2022/04/20 04:25:57;;;;;;;5.53;2.53;;;17.60;73.90;;;;;;5156276;27;20057;-63
2022/04/20 04:28:23;;;;;;;4.55;2.38;;;17.70;70.90;;;;;;5175971;27;20129;-64
2022/04/20 04:30:48;;;;;;;4.90;2.53;;;17.70;73.90;;;;;;5156451;27;20038;-62
2022/04/20 04:33:14;;;;;;;7.53;3.00;;;17.60;71.20;;;;;;5175803;27;20122;-66
2022/04/20 04:35:40;;;;;;;9.93;3.15;;;17.80;74.10;;;;;;5175022;27;20076;-65
2022/04/20 04:38:06;;;;;;;9.65;3.20;;;17.50;74.10;;;;;;5174541;27;20096;-67
2022/04/20 04:40:31;;;;;;;7.32;2.92;;;17.60;71.30;;;;;;5156602;27;20043;-66
2022/04/20 04:42:57;;;;;;;5.18;2.60;;;17.70;74.10;;;;;;5156272;27;20057;-66
2022/04/20 04:50:51;;;;;;;5.85;3.03;;;17.60;74.00;;;;;;5175977;27;20042;-67
2022/04/20 04:53:17;;;;;;;5.82;2.42;;;17.40;73.80;;;;;;5174970;27;20368;-66
2022/04/20 04:55:43;;;;;;;5.80;2.78;;;17.80;71.30;;;;;;5175184;27;20035;-66
2022/04/20 04:58:08;;;;;;;5.18;2.80;;;17.70;74.20;;;;;;5174950;27;20038;-67
2022/04/20 05:00:34;;;;;;;5.57;2.72;;;17.60;71.10;;;;;;5157055;27;20113;-67
2022/04/20 05:03:00;;;;;;;6.45;3.10;;;17.80;73.70;;;;;;5156935;27;20095;-66
2022/04/20 05:05:25;;;;;;;7.63;2.92;;;17.70;73.60;;;;;;5157310;27;20101;-66
2022/04/20 05:07:54;;;;;;;5.65;2.75;;;;;;;;;;5175392;27;20049;-67
2022/04/20 05:10:23;;;;;;;5.00;2.63;;;18.00;73.80;;;;;;5174596;27;20046;-67
2022/04/20 05:12:48;;;;;;;6.13;2.70;;;18.00;70.70;;;;;;5176091;27;20138;-67
2022/04/20 05:15:14;;;;;;;5.30;2.80;;;18.20;73.30;;;;;;5174208;27;20070;-67
2022/04/20 05:17:40;;;;;;;4.68;2.75;;;18.40;73.30;;;;;;5156553;27;20085;-66
2022/04/20 05:20:06;;;;;;;6.80;2.78;;;18.50;73.20;;;;;;5175766;27;20045;-67
2022/04/20 05:22:32;;;;;;;5.38;2.65;;;18.40;73.30;;;;;;5177752;27;20053;-67
2022/04/20 05:24:58;;;;;;;7.40;2.85;;;18.20;72.90;;;;;;5179703;27;20398;-67
2022/04/20 05:27:24;;;;;;;4.53;2.72;;;18.90;73.10;;;;;;5178994;27;20118;-67
2022/04/20 05:29:50;;;;;;;6.35;2.60;;;18.70;72.90;;;;;;5159486;27;20483;-67
2022/04/20 05:32:15;;;;;;;4.93;2.72;;;19.00;70.20;;;;;;5158166;27;20034;-67
2022/04/20 05:34:41;;;;;;;4.80;2.80;;;18.90;72.70;;;;;;5159344;27;20056;-67
2022/04/20 05:42:36;;;;;;;4.60;2.55;;;19.20;72.20;;;;;;5156562;27;20098;-67
2022/04/20 05:45:02;;;;;;;5.15;2.33;;;19.20;71.90;;;;;;5175514;27;20038;-67
2022/04/20 05:47:29;;;;;;;5.50;2.67;;;19.40;69.00;;;;;;5178407;27;20109;-71
2022/04/20 05:49:55;;;;;;;6.20;2.97;;;19.40;71.50;;;;;;5178543;27;20391;-63
2022/04/20 05:52:21;;;;;;;5.57;2.67;;;19.90;71.80;;;;;;5177763;27;20042;-66
2022/04/20 05:54:47;;;;;;;6.05;3.08;;;19.60;71.20;;;;;;5177861;27;20049;-65
2022/04/20 05:57:13;;;;;;;6.35;3.13;;;20.30;71.30;;;;;;5158210;27;20042;-67
2022/04/20 05:59:38;;;;;;;5.88;3.15;;;20.00;71.00;;;;;;5142637;27;20078;-66
2022/04/20 06:02:04;;;;;;;5.25;3.03;;;20.20;70.80;;;;;;5176237;27;20036;-65
2022/04/20 06:04:30;;;;;;;6.78;3.08;;;20.30;68.00;;;;;;5158998;27;20081;-64
2022/04/20 06:06:56;;;;;;;5.95;3.17;;;20.40;70.40;;;;;;5160675;27;20483;-66
2022/04/20 06:09:23;;;;;;;6.70;3.03;;;20.60;70.30;;;;;;5142509;27;20049;-66
2022/04/20 06:11:52;;;;;;;6.57;3.40;;;20.70;70.10;;;;;;5158110;27;20429;-65
2022/04/20 06:14:18;;;;;;;7.57;3.15;;;20.90;69.80;;;;;;5151863;27;20122;-65
2022/04/20 06:16:44;;;;;;;13.68;3.50;;;20.80;69.70;;;;;;5140988;27;20057;-66
2022/04/20 06:19:10;;;;;;;10.77;3.20;;;20.80;69.50;;;;;;5141397;27;20514;-65
2022/04/20 06:21:35;;;;;;;13.48;3.25;;;20.90;69.40;;;;;;5159194;27;20121;-66
2022/04/20 06:24:01;;;;;;;5.85;3.15;;;21.10;69.20;;;;;;5176721;27;20045;-68
2022/04/20 06:26:27;;;;;;;9.15;3.47;;;21.20;68.40;;;;;;5175675;27;20053;-67
2022/04/20 06:28:53;;;;;;;10.18;3.70;;;21.20;69.00;;;;;;5157821;27;20109;-69
2022/04/20 06:31:18;;;;;;;7.88;3.33;;;21.20;68.60;;;;;;5175911;27;20031;-68
2022/04/20 06:33:44;;;;;;;8.27;3.17;;;21.20;68.60;;;;;;5158024;27;20042;-67
2022/04/20 06:36:10;;;;;;;7.38;3.22;;;21.20;68.20;;;;;;5158867;27;20046;-66
2022/04/20 06:38:36;;;;;;;7.85;2.95;;;21.50;68.40;;;;;;5177015;27;20038;-67
2022/04/20 06:41:01;;;;;;;8.00;3.50;;;21.30;68.00;;;;;;5178694;27;20030;-65
2022/04/20 06:43:27;;;;;;;7.80;3.10;;;21.50;68.10;;;;;;5158769;27;20095;-65
2022/04/20 06:45:54;;;;;;;9.15;3.05;;;21.40;67.90;;;;;;5158853;27;20045;-66
2022/04/20 06:48:32;;;;;;;6.22;3.08;;;21.70;65.60;;;;;;5178062;27;20123;-66
2022/04/20 06:50:57;;;;;;;5.25;2.78;;;21.70;67.80;;;;;;5159032;27;20376;-66
2022/04/20 06:58:52;;;;;;;4.88;2.70;;;21.60;67.60;;;;;;5159324;27;20142;-64
2022/04/20 07:01:18;;;;;;;5.95;3.10;;;21.70;67.60;;;;;;5158117;27;20079;-67
2022/04/20 07:03:44;;;;;;;6.60;3.03;;;;;;;;;;5142406;27;20049;-67
2022/04/20 07:06:10;;;;;;;6.18;3.17;;;;;;;;;;5156024;27;20394;-67
2022/04/20 07:08:36;;;;;;;5.38;3.10;;;21.90;67.10;;;;;;5121066;27;20050;-67
2022/04/20 07:11:03;;;;;;;4.95;3.00;;;22.00;67.20;;;;;;5120706;27;20039;-68
2022/04/20 07:13:29;;;;;;;5.18;2.92;;;;;;;;;;5121095;27;20042;-69
2022/04/20 07:15:55;;;;;;;13.68;4.10;;;22.20;67.10;;;;;;5152058;27;20068;-69
2022/04/20 07:18:21;;;;;;;7.13;3.40;;;;;;;;;;5140960;27;20050;-68
2022/04/20 07:20:47;;;;;;;7.38;3.10;;;22.00;66.60;;;;;;5176537;27;20038;-68
2022/04/20 07:23:13;;;;;;;5.63;2.83;;;22.20;66.90;;;;;;5176270;27;20130;-69
2022/04/20 07:25:38;;;;;;;5.95;2.85;;;22.30;64.10;;;;;;5139488;27;20049;-68
2022/04/20 07:28:05;;;;;;;6.85;2.90;;;22.30;66.80;;;;;;5158303;27;20046;-70
2022/04/20 07:30:32;;;;;;;9.43;2.67;;;22.40;66.80;;;;;;5141321;27;20046;-69
2022/04/20 07:33:01;;;;;;;5.85;2.85;;;22.50;66.70;;;;;;5123539;27;20058;-68
2022/04/20 07:35:28;;;;;;;8.65;2.78;;;22.40;66.60;;;;;;5176139;27;20414;-67
2022/04/20 07:37:53;;;;;;;7.03;2.83;;;22.40;66.60;;;;;;5137323;27;20039;-69
2022/04/20 07:40:19;;;;;;;6.05;2.80;;;22.30;66.40;;;;;;5155630;27;20157;-68
2022/04/20 07:42:45;;;;;;;6.10;2.92;;;22.40;66.30;;;;;;5120489;27;20039;-69
2022/04/20 07:45:11;;;;;;;5.53;2.40;;;22.70;66.30;;;;;;5137244;27;20129;-69
2022/04/20 07:47:36;;;;;;;7.35;3.15;;;22.60;63.50;;;;;;5151020;27;20038;-68
2022/04/20 07:50:18;;;;;;;5.97;2.38;;;22.50;66.20;;;;;;5158212;27;20042;-68
2022/04/20 07:52:45;;;;;;;6.70;3.10;;;22.70;66.20;;;;;;5156614;27;20509;-68
2022/04/20 07:55:13;;;;;;;6.43;2.55;;;22.90;66.10;;;;;;5158096;27;20049;-69
2022/04/20 07:57:39;;;;;;;6.18;2.85;;;22.80;66.10;;;;;;5137946;27;20049;-68
2022/04/20 08:00:05;;;;;;;5.40;2.70;;;22.90;66.10;;;;;;5157697;27;20113;-69
2022/04/20 08:02:31;;;;;;;6.07;2.60;;;23.00;63.10;;;;;;5176871;27;20042;-69
2022/04/20 08:04:57;;;;;;;5.25;2.40;;;22.70;63.20;;;;;;5140466;27;20402;-69
2022/04/20 08:07:23;;;;;;;4.70;2.30;;;23.00;65.90;;;;;;5155702;27;20045;-68
2022/04/20 08:09:48;;;;;;;4.82;2.50;;;22.80;63.10;;;;;;5154013;27;20100;-68
2022/04/20 08:12:14;;;;;;;16.23;3.45;;;22.90;65.80;;;;;;5155208;27;20047;-69
2022/04/20 08:14:40;;;;;;;6.40;3.08;;;23.00;63.00;;;;;;5153963;27;20089;-69
2022/04/20 08:17:06;;;;;;;6.05;2.72;;;23.00;65.50;;;;;;5173147;27;20389;-68
2022/04/20 08:19:31;;;;;;;5.78;2.47;;;23.10;63.60;;;;;;5154970;27;20490;-69
2022/04/20 08:21:58;;;;;;;7.28;2.55;;;23.00;65.40;;;;;;5157654;27;20052;-69
2022/04/20 08:24:24;;;;;;;5.45;2.40;;;23.00;62.90;;;;;;5157200;27;20042;-68
2022/04/20 08:26:50;;;;;;;7.88;2.63;;;23.10;65.50;;;;;;5174051;27;20056;-69
2022/04/20 08:29:15;;;;;;;7.90;2.50;;;23.00;65.50;;;;;;5175353;27;20046;-70
2022/04/20 08:31:41;;;;;;;6.78;2.58;;;22.70;65.30;;;;;;5157011;27;20088;-69
2022/04/20 08:34:07;;;;;;;6.35;2.60;;;23.00;65.30;;;;;;5139697;27;20627;-70
2022/04/20 08:36:33;;;;;;;6.18;2.60;;;23.10;65.30;;;;;;5157630;27;20170;-67
2022/04/20 08:38:59;;;;;;;10.13;2.80;;;23.10;65.40;;;;;;5155334;27;20391;-67
2022/04/20 08:41:25;;;;;;;10.68;3.08;;;22.70;64.90;;;;;;5157584;27;20526;-67
2022/04/20 08:43:51;;;;;;;6.88;2.50;;;22.90;64.90;;;;;;5175749;27;20061;-67
2022/04/20 08:46:17;;;;;;;8.52;2.28;;;23.10;64.90;;;;;;5137788;27;20099;-67
2022/04/20 08:48:43;;;;;;;5.38;2.50;;;23.00;64.80;;;;;;5136669;27;20395;-67
2022/04/20 08:51:09;;;;;;;9.05;2.50;;;23.00;64.70;;;;;;5171476;27;20397;-70
2022/04/20 08:53:35;;;;;;;6.22;2.35;;;22.90;62.80;;;;;;5176022;27;20038;-67
2022/04/20 08:58:50;;;;;;;4.65;2.30;;;23.10;61.00;;;;;;5161219;27;20098;-70
2022/04/20 09:01:17;;;;;;;6.25;2.70;;;22.90;62.60;;;;;;5158882;27;20449;-70
2022/04/20 09:03:44;;;;;;;9.25;2.40;;;23.00;64.50;;;;;;5160892;27;20035;-68
2022/04/20 09:06:09;;;;;;;9.20;2.65;;;22.80;61.90;;;;;;5159195;27;20053;-67
2022/04/20 09:08:38;;;;;;;9.82;3.03;;;22.90;64.20;;;;;;5178974;27;20482;-70
2022/04/20 09:11:03;;;;;;;8.48;2.40;;;22.90;61.30;;;;;;5144525;27;20047;-70
2022/04/20 09:13:41;;;;;;;7.93;2.33;;;23.00;61.40;;;;;;5140215;27;20110;-70
2022/04/20 09:16:07;;;;;;;9.40;2.50;;;22.90;64.00;;;;;;5158655;27;20043;-69
2022/04/20 09:18:33;;;;;;;9.80;2.35;;;22.80;61.30;;;;;;5140106;27;20050;-70
2022/04/20 09:21:12;;;;;;;9.43;2.65;;;23.00;64.20;;;;;;5140042;27;20039;-69
2022/04/20 09:23:38;;;;;;;7.78;2.22;;;23.00;64.10;;;;;;5139772;27;20046;-65
2022/04/20 09:26:14;;;;;;;8.43;2.30;;;22.70;61.00;;;;;;5142989;27;20042;-62
2022/04/20 09:28:42;;;;;;;11.02;2.75;;;22.80;62.90;;;;;;5179599;27;20407;-65
2022/04/20 09:31:08;;;;;;;7.57;2.10;;;22.90;61.30;;;;;;5179317;27;20042;-62
2022/04/20 09:34:00;;;;;;;8.07;2.60;;;23.00;61.20;;;;;;5160575;27;20072;-66
2022/04/20 09:36:45;;;;;;;10.40;2.85;;;23.00;61.40;;;;;;5156548;27;20487;-64
2022/04/20 09:39:14;;;;;;;7.20;2.65;;;22.70;64.70;;;;;;5160446;27;20053;-63
2022/04/20 09:41:59;;;;;;;5.18;2.13;;;22.70;62.10;;;;;;5143048;27;20054;-67
2022/04/20 09:44:26;;;;;;;6.75;2.22;;;22.60;64.70;;;;;;5160385;27;20129;-63
2022/04/20 09:49:56;;;;;;;5.95;2.25;;;22.90;62.70;;;;;;5163597;27;20046;-67
2022/04/20 09:52:36;;;;;;;9.63;2.55;;;22.70;61.30;;;;;;5159929;27;20057;-67
2022/04/20 09:55:01;;;;;;;7.90;2.28;;;22.60;65.40;;;;;;5144798;27;20046;-66
2022/04/20 09:57:27;;;;;;;10.00;2.78;;;22.70;62.40;;;;;;5143220;27;20106;-67
2022/04/20 10:00:15;;;;;;;6.82;2.30;;;22.50;64.90;;;;;;5159862;27;20495;-65
2022/04/20 10:02:50;;;;;;;5.63;2.20;;;22.40;64.70;;;;;;5179007;27;20046;-63
2022/04/20 10:05:17;;;;;;;5.93;2.33;;;22.50;60.90;;;;;;5178491;27;20442;-62
2022/04/20 10:07:43;;;;;;;7.10;2.30;;;22.30;64.70;;;;;;5159807;27;20034;-63
2022/04/20 10:10:09;;;;;;;4.70;2.17;;;22.40;61.80;;;;;;5159889;27;20099;-67
2022/04/20 10:12:37;;;;;;;3.78;2.03;;;22.30;62.00;;;;;;5142344;27;20126;-64
2022/04/20 10:17:53;;;;;;;6.72;2.20;;;22.30;62.60;;;;;;5145604;27;20117;-71
2022/04/20 10:20:19;;;;;;;4.85;1.80;;;22.50;62.80;;;;;;5142483;27;20050;-66
2022/04/20 10:22:45;;;;;;;3.70;1.60;;;22.20;62.70;;;;;;5142673;27;20046;-63
2022/04/20 10:25:11;;;;;;;6.15;2.10;;;22.20;65.70;;;;;;5178537;27;20597;-64
2022/04/20 10:27:53;;;;;;;5.80;2.13;;;22.00;66.10;;;;;;5178511;27;20393;-63
2022/04/20 10:30:22;;;;;;;4.95;2.17;;;22.10;66.20;;;;;;5159640;27;20050;-62
2022/04/20 10:32:59;;;;;;;11.20;2.15;;;21.90;61.20;;;;;;5154366;27;20426;-67
2022/04/20 10:35:25;;;;;;;9.73;2.45;;;22.20;63.90;;;;;;5139830;27;20051;-70
2022/04/20 10:38:10;;;;;;;10.02;2.65;;;22.10;66.10;;;;;;5134378;27;20526;-68
2022/04/20 10:41:18;;;;;;;7.88;2.45;;;22.10;63.90;;;;;;5114823;27;20041;-68
2022/04/20 10:43:43;;;;;;;4.20;1.80;;;22.00;66.30;;;;;;5054929;28;20040;-71
2022/04/20 10:46:19;;;;;;;8.93;2.13;;;22.10;63.50;;;;;;5039726;28;20127;-71
2022/04/20 10:48:48;;;;;;;7.38;1.80;;;22.10;63.80;;;;;;5039686;28;20106;-70
2022/04/20 10:51:22;;;;;;;4.60;2.00;;;22.00;66.40;;;;;;5036176;28;20460;-65
2022/04/20 10:53:49;;;;;;;7.35;1.90;;;21.70;63.80;;;;;;5035456;28;20530;-71
2022/04/20 10:56:17;;;;;;;6.70;2.00;;;22.00;66.40;;;;;;5036593;28;20048;-70
2022/04/20 10:59:07;;;;;;;5.40;1.92;;;21.90;66.40;;;;;;5023513;28;20127;-71
2022/04/20 11:01:59;;;;;;;7.30;2.10;;;22.10;64.30;;;;;;4976527;28;20062;-71
2022/04/20 11:04:50;;;;;;;6.07;1.63;;;22.00;63.40;;;;;;4994562;28;20042;-71
2022/04/20 11:07:20;;;;;;;5.82;2.00;;;22.00;66.30;;;;;;4977966;28;20391;-71
2022/04/20 11:09:52;;;;;;;5.43;2.05;;;22.20;64.30;;;;;;4993277;28;20416;-71
2022/04/20 11:21:07;;;;;;;9.05;2.08;;;22.00;64.40;;;;;;5070958;28;20401;-63
2022/04/20 11:24:07;;;;;;;5.57;1.67;;;22.00;64.10;;;;;;5075612;28;20067;-64
2022/04/20 11:26:48;;;;;;;4.63;1.90;;;21.90;67.40;;;;;;5037557;28;20060;-63
2022/04/20 11:29:16;;;;;;;3.10;1.60;;;22.00;67.40;;;;;;5038021;28;20045;-64
2022/04/20 11:31:43;;;;;;;4.53;1.83;;;22.10;67.40;;;;;;5055372;28;20060;-63
2022/04/20 11:34:09;;;;;;;4.05;1.90;;;22.10;67.50;;;;;;5055123;28;20059;-66
2022/04/20 11:36:40;;;;;;;6.25;1.60;;;21.90;67.30;;;;;;5070928;28;20056;-64
2022/04/20 11:39:07;;;;;;;3.10;1.65;;;22.00;67.80;;;;;;5131868;27;20407;-64
2022/04/20 11:41:35;;;;;;;4.78;1.70;;;22.10;67.70;;;;;;5139111;27;20500;-62
2022/04/20 11:44:02;;;;;;;4.65;1.63;;;22.00;67.60;;;;;;5140463;27;20061;-66
2022/04/20 11:46:27;;;;;;;4.20;1.50;;;22.10;67.50;;;;;;5157654;27;20042;-65
2022/04/20 11:48:55;;;;;;;4.30;1.60;;;22.00;68.00;;;;;;5156718;27;20546;-64
2022/04/20 11:51:29;;;;;;;3.47;1.65;;;22.10;65.10;;;;;;5140848;27;20410;-63
2022/04/20 11:53:55;;;;;;;6.15;1.52;;;22.00;67.70;;;;;;5137835;27;20510;-63
2022/04/20 11:56:38;;;;;;;5.30;1.90;;;22.10;67.90;;;;;;5139735;27;20486;-66
2022/04/20 11:59:06;;;;;;;9.93;1.90;;;22.00;67.70;;;;;;5158071;27;20440;-68
2022/04/20 12:01:33;;;;;;;6.38;1.85;;;21.90;67.20;;;;;;5121206;27;20054;-66
2022/04/20 12:04:01;;;;;;;8.98;2.10;;;21.80;67.20;;;;;;5137932;27;20078;-63
2022/04/20 12:06:27;;;;;;;11.43;1.77;;;22.00;67.40;;;;;;5119893;27;20046;-66
2022/04/20 12:08:56;;;;;;;5.40;1.83;;;21.90;67.50;;;;;;5102693;27;20035;-66
2022/04/20 12:11:21;;;;;;;6.28;1.85;;;21.90;67.50;;;;;;5120106;27;20046;-66
2022/04/20 12:13:53;;;;;;;8.77;2.10;;;21.70;67.40;;;;;;5120759;27;20395;-66
2022/04/20 12:16:18;;;;;;;5.75;1.77;;;22.00;65.10;;;;;;5119454;27;20126;-67
2022/04/20 12:18:46;;;;;;;3.55;1.70;;;22.00;68.00;;;;;;5135204;27;20121;-65
2022/04/20 12:21:44;;;;;;;10.25;2.40;;;21.80;68.00;;;;;;5121335;27;20046;-66
2022/04/20 12:24:27;;;;;;;10.13;2.28;;;22.00;68.20;;;;;;5147041;27;20054;-68
2022/04/20 12:26:54;;;;;;;8.15;2.10;;;22.00;66.60;;;;;;5139953;27;20511;-66
2022/04/20 12:29:21;;;;;;;9.02;1.92;;;22.00;65.70;;;;;;5171762;27;20042;-71
2022/04/20 12:31:51;;;;;;;7.95;2.10;;;22.20;68.80;;;;;;5157058;27;20046;-66
2022/04/20 12:34:18;;;;;;;5.30;2.13;;;22.10;68.50;;;;;;5155866;27;20059;-71
2022/04/20 12:36:59;;;;;;;5.53;2.13;;;21.90;68.40;;;;;;5157300;27;20057;-68
2022/04/20 12:39:45;;;;;;;4.55;2.30;;;21.80;68.60;;;;;;5173968;27;20045;-66
2022/04/20 12:42:17;;;;;;;9.73;2.88;;;22.00;68.70;;;;;;5155912;27;20066;-66
2022/04/20 12:44:53;;;;;;;6.25;2.40;;;21.90;68.70;;;;;;5121023;27;20049;-64
2022/04/20 12:47:20;;;;;;;5.80;1.90;;;21.80;64.40;;;;;;5175808;27;20501;-66
2022/04/20 12:49:45;;;;;;;6.43;2.05;;;21.70;68.70;;;;;;5174620;27;20065;-65
2022/04/20 12:52:13;;;;;;;5.05;2.40;;;22.10;66.00;;;;;;5175598;27;20046;-64
2022/04/20 12:54:39;;;;;;;6.70;2.30;;;22.00;69.00;;;;;;5122892;27;20050;-65
2022/04/20 13:03:04;;;;;;;4.85;2.10;;;21.90;66.70;;;;;;5175664;27;20085;-66
2022/04/20 13:05:35;;;;;;;5.25;1.90;;;22.10;66.80;;;;;;5157325;27;20042;-66
2022/04/20 13:08:01;;;;;;;5.07;2.28;;;22.10;69.30;;;;;;5123253;27;20368;-67
2022/04/20 13:10:29;;;;;;;5.10;2.15;;;21.80;66.10;;;;;;5157478;27;20038;-66
2022/04/20 13:12:55;;;;;;;5.97;2.30;;;22.00;69.80;;;;;;5155201;27;20129;-62
2022/04/20 13:15:22;;;;;;;8.30;2.47;;;22.00;66.10;;;;;;5175865;27;20489;-65
2022/04/20 13:17:48;;;;;;;6.97;2.20;;;21.80;69.30;;;;;;5176353;27;20053;-65
2022/04/20 13:20:16;;;;;;;7.00;2.47;;;22.00;69.40;;;;;;5155581;27;20058;-63
2022/04/20 13:22:42;;;;;;;7.80;2.67;;;21.80;69.60;;;;;;5121278;27;20421;-62
2022/04/20 13:27:54;;;;;;;5.78;2.40;;;21.80;69.30;;;;;;5156757;27;20050;-63
2022/04/20 13:30:21;;;;;;;5.43;2.40;;;21.80;69.30;;;;;;5175518;27;20056;-63
2022/04/20 13:32:46;;;;;;;4.03;2.05;;;21.70;69.40;;;;;;5156505;27;20061;-62
2022/04/20 13:35:12;;;;;;;9.60;2.60;;;21.90;69.20;;;;;;5156767;27;20051;-62
2022/04/20 13:37:38;;;;;;;5.65;2.28;;;21.80;69.40;;;;;;5175579;27;20483;-64
2022/04/20 13:40:05;;;;;;;10.60;3.05;;;21.90;66.00;;;;;;5177437;27;20124;-62
2022/04/20 13:42:31;;;;;;;4.18;2.45;;;21.90;66.00;;;;;;5160191;27;20038;-63
2022/04/20 13:44:57;;;;;;;5.88;2.08;;;21.90;66.70;;;;;;5160464;27;20078;-63
2022/04/20 13:47:23;;;;;;;5.80;2.97;;;21.80;69.30;;;;;;5142845;27;20074;-65
2022/04/20 13:49:49;;;;;;;5.28;2.50;;;21.50;69.20;;;;;;5178947;27;20045;-62
2022/04/20 13:52:14;;;;;;;4.93;2.40;;;21.80;69.30;;;;;;5160682;27;20125;-63
2022/04/20 13:54:40;;;;;;;6.00;2.80;;;21.80;69.30;;;;;;5160275;27;20038;-61
2022/04/20 13:57:06;;;;;;;4.20;2.35;;;21.80;66.50;;;;;;5160368;27;20050;-61
2022/04/20 13:59:32;;;;;;;4.47;2.60;;;21.80;69.40;;;;;;5178738;27;20038;-64
2022/04/20 14:01:57;;;;;;;5.53;2.70;;;21.60;69.50;;;;;;5159901;27;20046;-64
2022/04/20 14:04:24;;;;;;;4.50;2.50;;;21.80;66.50;;;;;;5160458;27;20038;-62
2022/04/20 14:06:52;;;;;;;6.72;2.63;;;21.70;66.30;;;;;;5178811;27;20442;-63
2022/04/20 14:09:19;;;;;;;4.75;2.70;;;21.80;69.60;;;;;;5178933;27;20046;-63